sensor_id;sensor_type;location;lat;lon;timestamp;P1;durP1;ratioP1;P2;durP2;ratioP2
50968;SDS011;36982;51.474;7.228;2023-06-22T00:00:59;8.43;;;5.85;;
50968;SDS011;36982;51.474;7.228;2023-06-22T00:03:25;7.85;;;6.03;;
50968;SDS011;36982;51.474;7.228;2023-06-22T00:05:54;8.93;;;6.75;;
50968;SDS011;36982;51.474;7.228;2023-06-22T00:08:21;9.30;;;6.57;;
50968;SDS011;36982;51.474;7.228;2023-06-22T00:10:47;8.15;;;6.65;;
50968;SDS011;36982;51.474;7.228;2023-06-22T00:13:12;10.48;;;6.37;;
50968;SDS011;36982;51.474;7.228;2023-06-22T00:15:40;8.85;;;5.47;;
50968;SDS011;36982;51.474;7.228;2023-06-22T00:18:07;8.50;;;6.30;;
50968;SDS011;36982;51.474;7.228;2023-06-22T00:20:33;7.85;;;5.65;;
50968;SDS011;36982;51.474;7.228;2023-06-22T00:23:02;8.30;;;6.22;;
50968;SDS011;36982;51.474;7.228;2023-06-22T00:25:35;7.45;;;5.28;;
50968;SDS011;36982;51.474;7.228;2023-06-22T00:28:02;10.23;;;5.97;;
50968;SDS011;36982;51.474;7.228;2023-06-22T00:30:28;9.88;;;6.55;;
50968;SDS011;36982;51.474;7.228;2023-06-22T00:32:55;8.90;;;5.80;;
50968;SDS011;36982;51.474;7.228;2023-06-22T00:35:20;6.65;;;5.93;;
50968;SDS011;36982;51.474;7.228;2023-06-22T00:37:46;7.00;;;5.95;;
50968;SDS011;36982;51.474;7.228;2023-06-22T00:40:13;6.72;;;6.03;;
50968;SDS011;36982;51.474;7.228;2023-06-22T00:42:39;6.70;;;6.00;;
50968;SDS011;36982;51.474;7.228;2023-06-22T00:45:08;6.78;;;6.07;;
50968;SDS011;36982;51.474;7.228;2023-06-22T00:47:34;7.37;;;6.47;;
50968;SDS011;36982;51.474;7.228;2023-06-22T00:50:01;6.85;;;6.25;;
50968;SDS011;36982;51.474;7.228;2023-06-22T00:52:28;7.62;;;6.53;;
50968;SDS011;36982;51.474;7.228;2023-06-22T00:54:58;8.32;;;6.40;;
50968;SDS011;36982;51.474;7.228;2023-06-22T00:57:26;8.65;;;6.55;;
50968;SDS011;36982;51.474;7.228;2023-06-22T00:59:53;8.27;;;6.93;;
50968;SDS011;36982;51.474;7.228;2023-06-22T01:02:18;7.95;;;7.15;;
50968;SDS011;36982;51.474;7.228;2023-06-22T01:04:44;8.75;;;7.35;;
50968;SDS011;36982;51.474;7.228;2023-06-22T01:07:28;8.38;;;7.05;;
50968;SDS011;36982;51.474;7.228;2023-06-22T01:12:51;7.87;;;7.07;;
50968;SDS011;36982;51.474;7.228;2023-06-22T01:15:28;8.27;;;6.70;;
50968;SDS011;36982;51.474;7.228;2023-06-22T01:17:58;8.73;;;6.32;;
50968;SDS011;36982;51.474;7.228;2023-06-22T01:20:27;8.13;;;7.03;;
50968;SDS011;36982;51.474;7.228;2023-06-22T01:23:11;9.23;;;6.93;;
50968;SDS011;36982;51.474;7.228;2023-06-22T01:25:53;7.87;;;7.05;;
50968;SDS011;36982;51.474;7.228;2023-06-22T01:31:09;9.32;;;7.53;;
50968;SDS011;36982;51.474;7.228;2023-06-22T01:33:37;8.93;;;6.97;;
50968;SDS011;36982;51.474;7.228;2023-06-22T01:36:06;10.40;;;7.30;;
50968;SDS011;36982;51.474;7.228;2023-06-22T01:38:32;8.27;;;7.47;;
50968;SDS011;36982;51.474;7.228;2023-06-22T01:40:58;8.00;;;6.62;;
50968;SDS011;36982;51.474;7.228;2023-06-22T01:43:26;10.38;;;6.90;;
50968;SDS011;36982;51.474;7.228;2023-06-22T01:45:53;8.30;;;7.00;;
50968;SDS011;36982;51.474;7.228;2023-06-22T01:48:20;10.38;;;7.93;;
50968;SDS011;36982;51.474;7.228;2023-06-22T01:50:47;8.65;;;7.75;;
50968;SDS011;36982;51.474;7.228;2023-06-22T01:53:13;8.75;;;7.70;;
50968;SDS011;36982;51.474;7.228;2023-06-22T01:55:38;9.35;;;7.85;;
50968;SDS011;36982;51.474;7.228;2023-06-22T01:58:04;10.55;;;8.15;;
50968;SDS011;36982;51.474;7.228;2023-06-22T02:00:31;9.55;;;7.75;;
50968;SDS011;36982;51.474;7.228;2023-06-22T02:03:00;9.65;;;7.97;;
50968;SDS011;36982;51.474;7.228;2023-06-22T02:05:36;9.27;;;7.60;;
50968;SDS011;36982;51.474;7.228;2023-06-22T02:08:08;9.57;;;7.10;;
50968;SDS011;36982;51.474;7.228;2023-06-22T02:10:37;8.80;;;6.97;;
50968;SDS011;36982;51.474;7.228;2023-06-22T02:13:06;10.80;;;7.62;;
50968;SDS011;36982;51.474;7.228;2023-06-22T02:15:33;9.15;;;8.07;;
50968;SDS011;36982;51.474;7.228;2023-06-22T02:17:59;9.55;;;7.47;;
50968;SDS011;36982;51.474;7.228;2023-06-22T02:20:25;9.07;;;8.02;;
50968;SDS011;36982;51.474;7.228;2023-06-22T02:22:51;10.88;;;7.87;;
50968;SDS011;36982;51.474;7.228;2023-06-22T02:25:17;8.95;;;7.95;;
50968;SDS011;36982;51.474;7.228;2023-06-22T02:27:42;15.55;;;8.13;;
50968;SDS011;36982;51.474;7.228;2023-06-22T02:30:08;8.73;;;7.72;;
50968;SDS011;36982;51.474;7.228;2023-06-22T02:32:36;9.82;;;8.85;;
50968;SDS011;36982;51.474;7.228;2023-06-22T02:35:02;11.82;;;9.68;;
50968;SDS011;36982;51.474;7.228;2023-06-22T02:37:31;11.32;;;8.23;;
50968;SDS011;36982;51.474;7.228;2023-06-22T02:39:57;10.43;;;9.30;;
50968;SDS011;36982;51.474;7.228;2023-06-22T02:42:22;12.73;;;9.05;;
50968;SDS011;36982;51.474;7.228;2023-06-22T02:44:48;11.02;;;9.25;;
50968;SDS011;36982;51.474;7.228;2023-06-22T02:47:14;9.82;;;8.80;;
50968;SDS011;36982;51.474;7.228;2023-06-22T02:49:40;11.07;;;9.35;;
50968;SDS011;36982;51.474;7.228;2023-06-22T02:52:06;12.63;;;10.05;;
50968;SDS011;36982;51.474;7.228;2023-06-22T02:54:32;11.60;;;10.40;;
50968;SDS011;36982;51.474;7.228;2023-06-22T02:56:58;12.57;;;9.45;;
50968;SDS011;36982;51.474;7.228;2023-06-22T02:59:28;12.65;;;9.52;;
50968;SDS011;36982;51.474;7.228;2023-06-22T03:01:53;11.40;;;10.27;;
50968;SDS011;36982;51.474;7.228;2023-06-22T03:04:19;10.45;;;8.70;;
50968;SDS011;36982;51.474;7.228;2023-06-22T03:06:44;13.20;;;10.52;;
50968;SDS011;36982;51.474;7.228;2023-06-22T03:09:16;12.68;;;10.18;;
50968;SDS011;36982;51.474;7.228;2023-06-22T03:11:41;12.63;;;10.18;;
50968;SDS011;36982;51.474;7.228;2023-06-22T03:14:07;11.27;;;10.07;;
50968;SDS011;36982;51.474;7.228;2023-06-22T03:16:33;13.13;;;10.73;;
50968;SDS011;36982;51.474;7.228;2023-06-22T03:18:58;12.10;;;10.63;;
50968;SDS011;36982;51.474;7.228;2023-06-22T03:21:27;14.02;;;10.85;;
50968;SDS011;36982;51.474;7.228;2023-06-22T03:23:53;11.80;;;10.43;;
50968;SDS011;36982;51.474;7.228;2023-06-22T03:26:19;13.70;;;11.50;;
50968;SDS011;36982;51.474;7.228;2023-06-22T03:28:45;11.88;;;10.68;;
50968;SDS011;36982;51.474;7.228;2023-06-22T03:31:11;13.80;;;11.20;;
50968;SDS011;36982;51.474;7.228;2023-06-22T03:33:37;12.32;;;11.02;;
50968;SDS011;36982;51.474;7.228;2023-06-22T03:36:02;13.15;;;11.32;;
50968;SDS011;36982;51.474;7.228;2023-06-22T03:38:28;12.65;;;11.10;;
50968;SDS011;36982;51.474;7.228;2023-06-22T03:40:54;11.75;;;10.55;;
50968;SDS011;36982;51.474;7.228;2023-06-22T03:43:19;12.07;;;10.77;;
50968;SDS011;36982;51.474;7.228;2023-06-22T03:45:45;12.98;;;11.18;;
50968;SDS011;36982;51.474;7.228;2023-06-22T03:48:11;13.25;;;11.15;;
50968;SDS011;36982;51.474;7.228;2023-06-22T03:50:37;13.02;;;11.05;;
50968;SDS011;36982;51.474;7.228;2023-06-22T03:53:02;13.43;;;11.77;;
50968;SDS011;36982;51.474;7.228;2023-06-22T03:55:28;14.57;;;12.10;;
50968;SDS011;36982;51.474;7.228;2023-06-22T03:57:54;14.75;;;12.30;;
50968;SDS011;36982;51.474;7.228;2023-06-22T04:00:21;14.10;;;12.30;;
50968;SDS011;36982;51.474;7.228;2023-06-22T04:02:50;16.45;;;12.18;;
50968;SDS011;36982;51.474;7.228;2023-06-22T04:05:15;15.70;;;11.90;;
50968;SDS011;36982;51.474;7.228;2023-06-22T04:07:44;13.38;;;11.98;;
50968;SDS011;36982;51.474;7.228;2023-06-22T04:10:09;13.50;;;12.10;;
50968;SDS011;36982;51.474;7.228;2023-06-22T04:12:35;14.52;;;11.70;;
50968;SDS011;36982;51.474;7.228;2023-06-22T04:15:01;13.07;;;11.75;;
50968;SDS011;36982;51.474;7.228;2023-06-22T04:17:30;17.85;;;12.27;;
50968;SDS011;36982;51.474;7.228;2023-06-22T04:19:55;13.35;;;11.77;;
50968;SDS011;36982;51.474;7.228;2023-06-22T04:22:21;14.87;;;12.27;;
50968;SDS011;36982;51.474;7.228;2023-06-22T04:24:46;13.65;;;12.18;;
50968;SDS011;36982;51.474;7.228;2023-06-22T04:27:12;15.93;;;12.57;;
50968;SDS011;36982;51.474;7.228;2023-06-22T04:29:38;13.80;;;11.70;;
50968;SDS011;36982;51.474;7.228;2023-06-22T04:32:08;13.90;;;12.15;;
50968;SDS011;36982;51.474;7.228;2023-06-22T04:34:34;13.68;;;12.30;;
50968;SDS011;36982;51.474;7.228;2023-06-22T04:36:59;14.63;;;11.98;;
50968;SDS011;36982;51.474;7.228;2023-06-22T04:39:25;14.18;;;12.65;;
50968;SDS011;36982;51.474;7.228;2023-06-22T04:41:51;17.50;;;12.18;;
50968;SDS011;36982;51.474;7.228;2023-06-22T04:44:18;15.23;;;12.85;;
50968;SDS011;36982;51.474;7.228;2023-06-22T04:46:50;15.13;;;12.32;;
50968;SDS011;36982;51.474;7.228;2023-06-22T04:49:25;13.85;;;11.93;;
50968;SDS011;36982;51.474;7.228;2023-06-22T04:51:57;14.82;;;11.90;;
50968;SDS011;36982;51.474;7.228;2023-06-22T04:54:23;14.18;;;12.70;;
50968;SDS011;36982;51.474;7.228;2023-06-22T04:56:49;14.25;;;12.60;;
50968;SDS011;36982;51.474;7.228;2023-06-22T04:59:26;15.82;;;11.80;;
50968;SDS011;36982;51.474;7.228;2023-06-22T05:01:58;14.32;;;12.32;;
50968;SDS011;36982;51.474;7.228;2023-06-22T05:04:26;15.75;;;12.48;;
50968;SDS011;36982;51.474;7.228;2023-06-22T05:06:56;15.43;;;12.35;;
50968;SDS011;36982;51.474;7.228;2023-06-22T05:09:23;15.60;;;13.57;;
50968;SDS011;36982;51.474;7.228;2023-06-22T05:11:50;13.62;;;12.23;;
50968;SDS011;36982;51.474;7.228;2023-06-22T05:14:16;17.33;;;12.10;;
50968;SDS011;36982;51.474;7.228;2023-06-22T05:16:43;14.48;;;11.73;;
50968;SDS011;36982;51.474;7.228;2023-06-22T05:19:09;14.40;;;12.45;;
50968;SDS011;36982;51.474;7.228;2023-06-22T05:21:35;14.25;;;12.07;;
50968;SDS011;36982;51.474;7.228;2023-06-22T05:24:00;13.77;;;11.98;;
50968;SDS011;36982;51.474;7.228;2023-06-22T05:26:27;16.35;;;12.30;;
50968;SDS011;36982;51.474;7.228;2023-06-22T05:28:54;15.98;;;11.73;;
50968;SDS011;36982;51.474;7.228;2023-06-22T05:31:19;17.52;;;12.10;;
50968;SDS011;36982;51.474;7.228;2023-06-22T05:33:46;13.45;;;11.77;;
50968;SDS011;36982;51.474;7.228;2023-06-22T05:36:13;16.10;;;12.60;;
50968;SDS011;36982;51.474;7.228;2023-06-22T05:38:39;17.67;;;12.60;;
50968;SDS011;36982;51.474;7.228;2023-06-22T05:41:06;16.02;;;11.52;;
50968;SDS011;36982;51.474;7.228;2023-06-22T05:43:32;15.15;;;12.55;;
50968;SDS011;36982;51.474;7.228;2023-06-22T05:45:58;18.08;;;12.75;;
50968;SDS011;36982;51.474;7.228;2023-06-22T05:48:25;16.77;;;13.82;;
50968;SDS011;36982;51.474;7.228;2023-06-22T05:50:51;16.65;;;12.57;;
50968;SDS011;36982;51.474;7.228;2023-06-22T05:53:17;18.00;;;13.77;;
50968;SDS011;36982;51.474;7.228;2023-06-22T05:55:43;18.60;;;13.32;;
50968;SDS011;36982;51.474;7.228;2023-06-22T05:58:08;17.90;;;13.13;;
50968;SDS011;36982;51.474;7.228;2023-06-22T06:00:34;19.45;;;13.65;;
50968;SDS011;36982;51.474;7.228;2023-06-22T06:03:00;21.27;;;13.50;;
50968;SDS011;36982;51.474;7.228;2023-06-22T06:05:35;20.12;;;13.32;;
50968;SDS011;36982;51.474;7.228;2023-06-22T06:08:01;14.98;;;11.35;;
50968;SDS011;36982;51.474;7.228;2023-06-22T06:10:29;14.48;;;11.15;;
50968;SDS011;36982;51.474;7.228;2023-06-22T06:12:55;15.57;;;11.12;;
50968;SDS011;36982;51.474;7.228;2023-06-22T06:15:21;12.88;;;10.77;;
50968;SDS011;36982;51.474;7.228;2023-06-22T06:20:19;13.60;;;10.48;;
50968;SDS011;36982;51.474;7.228;2023-06-22T06:22:48;15.48;;;11.23;;
50968;SDS011;36982;51.474;7.228;2023-06-22T06:25:14;14.25;;;10.52;;
50968;SDS011;36982;51.474;7.228;2023-06-22T06:27:48;14.27;;;11.25;;
50968;SDS011;36982;51.474;7.228;2023-06-22T06:30:15;16.02;;;10.68;;
50968;SDS011;36982;51.474;7.228;2023-06-22T06:32:42;13.30;;;10.00;;
50968;SDS011;36982;51.474;7.228;2023-06-22T06:35:10;13.23;;;10.30;;
50968;SDS011;36982;51.474;7.228;2023-06-22T06:37:41;13.27;;;10.27;;
50968;SDS011;36982;51.474;7.228;2023-06-22T06:40:07;17.30;;;10.98;;
50968;SDS011;36982;51.474;7.228;2023-06-22T06:42:35;11.45;;;9.93;;
50968;SDS011;36982;51.474;7.228;2023-06-22T06:45:04;12.95;;;10.65;;
50968;SDS011;36982;51.474;7.228;2023-06-22T06:47:30;12.27;;;9.68;;
50968;SDS011;36982;51.474;7.228;2023-06-22T06:49:55;18.10;;;10.45;;
50968;SDS011;36982;51.474;7.228;2023-06-22T06:52:21;14.85;;;10.25;;
50968;SDS011;36982;51.474;7.228;2023-06-22T06:54:47;15.70;;;10.25;;
50968;SDS011;36982;51.474;7.228;2023-06-22T06:57:12;14.07;;;10.02;;
50968;SDS011;36982;51.474;7.228;2023-06-22T06:59:38;13.50;;;10.60;;
50968;SDS011;36982;51.474;7.228;2023-06-22T07:02:04;17.15;;;11.15;;
50968;SDS011;36982;51.474;7.228;2023-06-22T07:04:30;13.80;;;10.40;;
50968;SDS011;36982;51.474;7.228;2023-06-22T07:06:55;14.85;;;11.15;;
50968;SDS011;36982;51.474;7.228;2023-06-22T07:09:21;13.80;;;10.65;;
50968;SDS011;36982;51.474;7.228;2023-06-22T07:11:46;15.40;;;10.60;;
50968;SDS011;36982;51.474;7.228;2023-06-22T07:14:12;12.32;;;11.00;;
50968;SDS011;36982;51.474;7.228;2023-06-22T07:16:38;12.20;;;10.77;;
50968;SDS011;36982;51.474;7.228;2023-06-22T07:19:03;13.70;;;10.73;;
50968;SDS011;36982;51.474;7.228;2023-06-22T07:21:29;14.02;;;11.10;;
50968;SDS011;36982;51.474;7.228;2023-06-22T07:23:54;12.30;;;11.00;;
50968;SDS011;36982;51.474;7.228;2023-06-22T07:26:20;15.13;;;11.30;;
50968;SDS011;36982;51.474;7.228;2023-06-22T07:28:45;15.32;;;11.25;;
50968;SDS011;36982;51.474;7.228;2023-06-22T07:31:11;16.12;;;10.52;;
50968;SDS011;36982;51.474;7.228;2023-06-22T07:33:36;14.55;;;11.40;;
50968;SDS011;36982;51.474;7.228;2023-06-22T07:36:02;18.42;;;11.63;;
50968;SDS011;36982;51.474;7.228;2023-06-22T07:38:32;14.15;;;11.75;;
50968;SDS011;36982;51.474;7.228;2023-06-22T07:40:58;14.80;;;12.10;;
50968;SDS011;36982;51.474;7.228;2023-06-22T07:43:23;16.77;;;11.82;;
50968;SDS011;36982;51.474;7.228;2023-06-22T07:45:49;15.93;;;11.90;;
50968;SDS011;36982;51.474;7.228;2023-06-22T07:48:22;17.83;;;12.18;;
50968;SDS011;36982;51.474;7.228;2023-06-22T07:50:48;14.82;;;12.55;;
50968;SDS011;36982;51.474;7.228;2023-06-22T07:53:13;18.55;;;13.30;;
50968;SDS011;36982;51.474;7.228;2023-06-22T07:55:39;17.27;;;13.13;;
50968;SDS011;36982;51.474;7.228;2023-06-22T07:58:05;17.58;;;13.70;;
50968;SDS011;36982;51.474;7.228;2023-06-22T08:00:30;16.95;;;13.10;;
50968;SDS011;36982;51.474;7.228;2023-06-22T08:02:57;15.45;;;13.23;;
50968;SDS011;36982;51.474;7.228;2023-06-22T08:05:23;19.62;;;14.48;;
50968;SDS011;36982;51.474;7.228;2023-06-22T08:07:49;14.65;;;13.02;;
50968;SDS011;36982;51.474;7.228;2023-06-22T08:10:15;17.50;;;13.40;;
50968;SDS011;36982;51.474;7.228;2023-06-22T08:12:40;16.67;;;14.93;;
50968;SDS011;36982;51.474;7.228;2023-06-22T08:15:06;18.25;;;13.35;;
50968;SDS011;36982;51.474;7.228;2023-06-22T08:17:32;18.37;;;14.82;;
50968;SDS011;36982;51.474;7.228;2023-06-22T08:19:58;19.70;;;15.48;;
50968;SDS011;36982;51.474;7.228;2023-06-22T08:22:24;16.77;;;15.00;;
50968;SDS011;36982;51.474;7.228;2023-06-22T08:24:50;16.25;;;14.57;;
50968;SDS011;36982;51.474;7.228;2023-06-22T08:27:15;16.33;;;14.50;;
50968;SDS011;36982;51.474;7.228;2023-06-22T08:29:43;17.05;;;14.35;;
50968;SDS011;36982;51.474;7.228;2023-06-22T08:32:10;17.75;;;14.87;;
50968;SDS011;36982;51.474;7.228;2023-06-22T08:34:36;17.65;;;15.85;;
50968;SDS011;36982;51.474;7.228;2023-06-22T08:37:02;15.63;;;13.93;;
50968;SDS011;36982;51.474;7.228;2023-06-22T08:39:31;16.80;;;14.98;;
50968;SDS011;36982;51.474;7.228;2023-06-22T08:41:57;20.17;;;14.38;;
50968;SDS011;36982;51.474;7.228;2023-06-22T08:44:22;16.15;;;13.55;;
50968;SDS011;36982;51.474;7.228;2023-06-22T08:46:48;16.75;;;15.05;;
50968;SDS011;36982;51.474;7.228;2023-06-22T08:49:14;15.80;;;14.18;;
50968;SDS011;36982;51.474;7.228;2023-06-22T08:51:40;16.80;;;14.27;;
50968;SDS011;36982;51.474;7.228;2023-06-22T08:57:03;16.92;;;15.23;;
50968;SDS011;36982;51.474;7.228;2023-06-22T08:59:29;21.37;;;15.98;;
50968;SDS011;36982;51.474;7.228;2023-06-22T09:01:55;20.00;;;16.65;;
50968;SDS011;36982;51.474;7.228;2023-06-22T09:04:21;17.65;;;15.10;;
50968;SDS011;36982;51.474;7.228;2023-06-22T09:06:47;17.98;;;15.57;;
50968;SDS011;36982;51.474;7.228;2023-06-22T09:09:13;20.17;;;15.88;;
50968;SDS011;36982;51.474;7.228;2023-06-22T09:11:39;17.15;;;15.38;;
50968;SDS011;36982;51.474;7.228;2023-06-22T09:14:05;16.67;;;14.98;;
50968;SDS011;36982;51.474;7.228;2023-06-22T09:16:31;17.92;;;16.12;;
50968;SDS011;36982;51.474;7.228;2023-06-22T09:18:57;17.23;;;15.52;;
50968;SDS011;36982;51.474;7.228;2023-06-22T09:21:23;17.12;;;15.30;;
50968;SDS011;36982;51.474;7.228;2023-06-22T09:23:48;17.70;;;15.02;;
50968;SDS011;36982;51.474;7.228;2023-06-22T09:26:16;17.65;;;15.85;;
50968;SDS011;36982;51.474;7.228;2023-06-22T09:28:42;17.20;;;15.43;;
50968;SDS011;36982;51.474;7.228;2023-06-22T09:31:08;17.87;;;15.80;;
50968;SDS011;36982;51.474;7.228;2023-06-22T09:33:35;17.95;;;16.05;;
50968;SDS011;36982;51.474;7.228;2023-06-22T09:36:01;18.58;;;15.38;;
50968;SDS011;36982;51.474;7.228;2023-06-22T09:38:26;17.02;;;14.90;;
50968;SDS011;36982;51.474;7.228;2023-06-22T09:40:52;16.48;;;14.75;;
50968;SDS011;36982;51.474;7.228;2023-06-22T09:43:17;15.70;;;14.10;;
50968;SDS011;36982;51.474;7.228;2023-06-22T09:45:43;16.08;;;14.48;;
50968;SDS011;36982;51.474;7.228;2023-06-22T09:48:08;15.48;;;13.35;;
50968;SDS011;36982;51.474;7.228;2023-06-22T09:50:37;16.48;;;14.05;;
50968;SDS011;36982;51.474;7.228;2023-06-22T09:53:02;14.52;;;12.80;;
50968;SDS011;36982;51.474;7.228;2023-06-22T09:55:28;14.52;;;13.00;;
50968;SDS011;36982;51.474;7.228;2023-06-22T09:57:54;17.85;;;11.77;;
50968;SDS011;36982;51.474;7.228;2023-06-22T10:00:20;13.02;;;11.12;;
50968;SDS011;36982;51.474;7.228;2023-06-22T10:02:46;13.62;;;12.20;;
50968;SDS011;36982;51.474;7.228;2023-06-22T10:05:12;12.15;;;10.88;;
50968;SDS011;36982;51.474;7.228;2023-06-22T10:07:38;11.82;;;10.52;;
50968;SDS011;36982;51.474;7.228;2023-06-22T10:10:07;11.35;;;9.73;;
50968;SDS011;36982;51.474;7.228;2023-06-22T10:12:33;10.57;;;9.48;;
50968;SDS011;36982;51.474;7.228;2023-06-22T10:14:59;13.10;;;9.98;;
50968;SDS011;36982;51.474;7.228;2023-06-22T10:17:25;10.98;;;9.82;;
50968;SDS011;36982;51.474;7.228;2023-06-22T10:19:50;10.15;;;9.13;;
50968;SDS011;36982;51.474;7.228;2023-06-22T10:22:16;10.45;;;9.05;;
50968;SDS011;36982;51.474;7.228;2023-06-22T10:24:41;12.00;;;10.35;;
50968;SDS011;36982;51.474;7.228;2023-06-22T10:27:11;9.65;;;8.65;;
50968;SDS011;36982;51.474;7.228;2023-06-22T10:29:37;9.27;;;8.27;;
50968;SDS011;36982;51.474;7.228;2023-06-22T10:32:02;8.88;;;7.97;;
50968;SDS011;36982;51.474;7.228;2023-06-22T10:34:28;9.68;;;8.02;;
50968;SDS011;36982;51.474;7.228;2023-06-22T10:36:54;8.50;;;7.65;;
50968;SDS011;36982;51.474;7.228;2023-06-22T10:39:19;9.23;;;8.35;;
50968;SDS011;36982;51.474;7.228;2023-06-22T10:41:45;9.30;;;8.13;;
50968;SDS011;36982;51.474;7.228;2023-06-22T10:44:11;9.13;;;7.60;;
50968;SDS011;36982;51.474;7.228;2023-06-22T10:46:37;9.35;;;8.35;;
50968;SDS011;36982;51.474;7.228;2023-06-22T10:49:03;8.55;;;7.65;;
50968;SDS011;36982;51.474;7.228;2023-06-22T10:51:28;9.27;;;8.20;;
50968;SDS011;36982;51.474;7.228;2023-06-22T10:53:54;9.25;;;8.25;;
50968;SDS011;36982;51.474;7.228;2023-06-22T10:56:19;10.35;;;8.07;;
50968;SDS011;36982;51.474;7.228;2023-06-22T10:58:45;8.80;;;7.93;;
50968;SDS011;36982;51.474;7.228;2023-06-22T11:01:11;13.55;;;9.13;;
50968;SDS011;36982;51.474;7.228;2023-06-22T11:03:36;10.38;;;8.65;;
50968;SDS011;36982;51.474;7.228;2023-06-22T11:06:02;8.63;;;7.78;;
50968;SDS011;36982;51.474;7.228;2023-06-22T11:08:28;9.48;;;8.25;;
50968;SDS011;36982;51.474;7.228;2023-06-22T11:10:53;12.07;;;8.68;;
50968;SDS011;36982;51.474;7.228;2023-06-22T11:13:19;9.73;;;8.73;;
50968;SDS011;36982;51.474;7.228;2023-06-22T11:15:44;9.88;;;8.40;;
50968;SDS011;36982;51.474;7.228;2023-06-22T11:18:10;11.10;;;9.07;;
50968;SDS011;36982;51.474;7.228;2023-06-22T11:20:36;10.35;;;8.88;;
50968;SDS011;36982;51.474;7.228;2023-06-22T11:23:06;10.90;;;9.90;;
50968;SDS011;36982;51.474;7.228;2023-06-22T11:25:32;12.00;;;9.95;;
50968;SDS011;36982;51.474;7.228;2023-06-22T11:28:01;11.70;;;9.90;;
50968;SDS011;36982;51.474;7.228;2023-06-22T11:30:30;12.65;;;10.40;;
50968;SDS011;36982;51.474;7.228;2023-06-22T11:32:56;12.55;;;10.70;;
50968;SDS011;36982;51.474;7.228;2023-06-22T11:35:23;11.32;;;10.13;;
50968;SDS011;36982;51.474;7.228;2023-06-22T11:37:49;11.95;;;10.00;;
50968;SDS011;36982;51.474;7.228;2023-06-22T11:40:14;14.23;;;10.85;;
50968;SDS011;36982;51.474;7.228;2023-06-22T11:42:40;12.50;;;11.20;;
50968;SDS011;36982;51.474;7.228;2023-06-22T11:45:06;13.35;;;11.95;;
50968;SDS011;36982;51.474;7.228;2023-06-22T11:47:32;14.82;;;12.88;;
50968;SDS011;36982;51.474;7.228;2023-06-22T11:49:57;15.30;;;13.77;;
50968;SDS011;36982;51.474;7.228;2023-06-22T11:52:23;15.30;;;13.70;;
50968;SDS011;36982;51.474;7.228;2023-06-22T11:54:48;18.48;;;16.52;;
50968;SDS011;36982;51.474;7.228;2023-06-22T11:57:14;19.62;;;17.35;;
50968;SDS011;36982;51.474;7.228;2023-06-22T11:59:39;22.30;;;19.00;;
50968;SDS011;36982;51.474;7.228;2023-06-22T12:02:05;22.50;;;19.67;;
50968;SDS011;36982;51.474;7.228;2023-06-22T12:04:32;24.27;;;21.05;;
50968;SDS011;36982;51.474;7.228;2023-06-22T12:06:58;25.27;;;21.60;;
50968;SDS011;36982;51.474;7.228;2023-06-22T12:09:23;25.27;;;22.60;;
50968;SDS011;36982;51.474;7.228;2023-06-22T12:11:49;25.85;;;23.05;;
50968;SDS011;36982;51.474;7.228;2023-06-22T12:14:15;28.10;;;24.48;;
50968;SDS011;36982;51.474;7.228;2023-06-22T12:16:40;30.33;;;26.12;;
50968;SDS011;36982;51.474;7.228;2023-06-22T12:19:06;31.85;;;27.48;;
50968;SDS011;36982;51.474;7.228;2023-06-22T12:21:31;31.83;;;26.62;;
50968;SDS011;36982;51.474;7.228;2023-06-22T12:23:57;35.53;;;28.38;;
50968;SDS011;36982;51.474;7.228;2023-06-22T12:26:22;39.97;;;29.23;;
50968;SDS011;36982;51.474;7.228;2023-06-22T12:28:48;33.50;;;28.15;;
50968;SDS011;36982;51.474;7.228;2023-06-22T12:31:14;35.28;;;28.90;;
50968;SDS011;36982;51.474;7.228;2023-06-22T12:33:39;34.45;;;29.05;;
50968;SDS011;36982;51.474;7.228;2023-06-22T12:36:05;36.80;;;28.95;;
50968;SDS011;36982;51.474;7.228;2023-06-22T12:38:31;33.25;;;28.00;;
50968;SDS011;36982;51.474;7.228;2023-06-22T12:40:56;32.60;;;29.12;;
50968;SDS011;36982;51.474;7.228;2023-06-22T12:43:22;34.05;;;29.12;;
50968;SDS011;36982;51.474;7.228;2023-06-22T12:45:47;33.03;;;28.42;;
50968;SDS011;36982;51.474;7.228;2023-06-22T12:48:13;31.23;;;27.42;;
50968;SDS011;36982;51.474;7.228;2023-06-22T12:50:39;30.80;;;27.52;;
50968;SDS011;36982;51.474;7.228;2023-06-22T12:53:04;27.23;;;24.35;;
50968;SDS011;36982;51.474;7.228;2023-06-22T12:55:31;31.48;;;25.27;;
50968;SDS011;36982;51.474;7.228;2023-06-22T12:57:57;25.42;;;22.23;;
50968;SDS011;36982;51.474;7.228;2023-06-22T13:00:22;26.42;;;20.90;;
50968;SDS011;36982;51.474;7.228;2023-06-22T13:02:48;27.10;;;23.42;;
50968;SDS011;36982;51.474;7.228;2023-06-22T13:05:14;24.55;;;22.05;;
50968;SDS011;36982;51.474;7.228;2023-06-22T13:07:39;23.40;;;20.92;;
50968;SDS011;36982;51.474;7.228;2023-06-22T13:10:07;20.58;;;18.45;;
50968;SDS011;36982;51.474;7.228;2023-06-22T13:12:33;23.05;;;20.05;;
50968;SDS011;36982;51.474;7.228;2023-06-22T13:14:58;19.95;;;17.85;;
50968;SDS011;36982;51.474;7.228;2023-06-22T13:17:24;22.60;;;17.30;;
50968;SDS011;36982;51.474;7.228;2023-06-22T13:19:49;20.52;;;18.15;;
50968;SDS011;36982;51.474;7.228;2023-06-22T13:25:10;17.62;;;15.80;;
50968;SDS011;36982;51.474;7.228;2023-06-22T13:27:38;17.58;;;15.60;;
50968;SDS011;36982;51.474;7.228;2023-06-22T13:30:04;16.55;;;14.80;;
50968;SDS011;36982;51.474;7.228;2023-06-22T13:32:30;16.23;;;13.43;;
50968;SDS011;36982;51.474;7.228;2023-06-22T13:34:56;16.37;;;14.57;;
50968;SDS011;36982;51.474;7.228;2023-06-22T13:37:21;16.27;;;14.57;;
50968;SDS011;36982;51.474;7.228;2023-06-22T13:39:47;16.65;;;14.27;;
50968;SDS011;36982;51.474;7.228;2023-06-22T13:42:12;16.48;;;14.63;;
50968;SDS011;36982;51.474;7.228;2023-06-22T13:44:38;17.20;;;14.23;;
50968;SDS011;36982;51.474;7.228;2023-06-22T13:47:03;16.70;;;14.87;;
50968;SDS011;36982;51.474;7.228;2023-06-22T13:49:31;17.27;;;15.00;;
50968;SDS011;36982;51.474;7.228;2023-06-22T13:51:56;17.48;;;15.30;;
50968;SDS011;36982;51.474;7.228;2023-06-22T13:54:22;15.65;;;14.02;;
50968;SDS011;36982;51.474;7.228;2023-06-22T13:56:48;16.05;;;13.80;;
50968;SDS011;36982;51.474;7.228;2023-06-22T13:59:13;14.65;;;13.05;;
50968;SDS011;36982;51.474;7.228;2023-06-22T14:01:39;16.73;;;13.27;;
50968;SDS011;36982;51.474;7.228;2023-06-22T14:04:06;16.00;;;14.30;;
50968;SDS011;36982;51.474;7.228;2023-06-22T14:06:31;15.55;;;13.65;;
50968;SDS011;36982;51.474;7.228;2023-06-22T14:08:57;15.07;;;13.40;;
50968;SDS011;36982;51.474;7.228;2023-06-22T14:11:22;15.02;;;12.10;;
50968;SDS011;36982;51.474;7.228;2023-06-22T14:13:49;14.75;;;12.77;;
50968;SDS011;36982;51.474;7.228;2023-06-22T14:16:15;13.27;;;11.98;;
50968;SDS011;36982;51.474;7.228;2023-06-22T14:18:40;12.75;;;11.48;;
50968;SDS011;36982;51.474;7.228;2023-06-22T14:21:07;13.70;;;11.60;;
50968;SDS011;36982;51.474;7.228;2023-06-22T14:23:32;13.35;;;11.50;;
50968;SDS011;36982;51.474;7.228;2023-06-22T14:25:58;13.40;;;11.95;;
50968;SDS011;36982;51.474;7.228;2023-06-22T14:28:24;13.10;;;11.68;;
50968;SDS011;36982;51.474;7.228;2023-06-22T14:30:49;12.63;;;11.40;;
50968;SDS011;36982;51.474;7.228;2023-06-22T14:33:15;13.60;;;12.20;;
50968;SDS011;36982;51.474;7.228;2023-06-22T14:35:40;17.12;;;15.02;;
50968;SDS011;36982;51.474;7.228;2023-06-22T14:38:06;14.13;;;12.73;;